createdAt,value
2022-08-09T00:00:21.199Z,26.50
2022-08-09T00:02:51.423Z,26.50
2022-08-09T00:06:19.655Z,26.60
2022-08-09T00:08:31.474Z,26.50
2022-08-09T00:10:59.569Z,26.50
2022-08-09T00:13:31.705Z,26.50
2022-08-09T00:16:02.710Z,26.40
2022-08-09T00:18:35.016Z,26.50
2022-08-09T00:21:08.807Z,26.40
2022-08-09T00:23:58.170Z,26.40
2022-08-09T00:26:29.837Z,26.40
2022-08-09T00:29:02.772Z,26.40
2022-08-09T00:31:59.452Z,26.40
2022-08-09T00:34:19.808Z,26.40
2022-08-09T00:36:48.973Z,26.40
2022-08-09T00:40:12.231Z,26.40
2022-08-09T00:44:14.246Z,26.30
2022-08-09T00:44:53.619Z,26.30
2022-08-09T00:47:24.719Z,26.40
2022-08-09T00:49:56.598Z,26.30
2022-08-09T00:52:30.192Z,26.30
2022-08-09T00:55:02.388Z,26.40
2022-08-09T00:57:34.470Z,26.30
2022-08-09T01:00:21.609Z,26.30
2022-08-09T01:02:50.592Z,26.30
2022-08-09T01:05:22.124Z,26.30
2022-08-09T01:08:01.154Z,26.30
2022-08-09T01:10:38.517Z,26.30
2022-08-09T01:13:12.797Z,26.30
2022-08-09T01:15:52.648Z,26.30
2022-08-09T01:18:31.513Z,26.20
2022-08-09T01:21:24.858Z,26.20
2022-08-09T01:24:10.077Z,26.20
2022-08-09T01:26:53.942Z,26.20
2022-08-09T01:29:56.015Z,26.20
2022-08-09T01:32:37.366Z,26.20
2022-08-09T01:35:38.109Z,26.20
2022-08-09T01:38:08.208Z,26.20
2022-08-09T01:40:42.373Z,26.10
2022-08-09T01:43:10.434Z,26.20
2022-08-09T01:45:46.096Z,26.20
2022-08-09T01:48:16.756Z,26.10
2022-08-09T01:50:48.800Z,26.10
2022-08-09T01:53:29.312Z,26.10
2022-08-09T01:56:11.183Z,26.10
2022-08-09T01:58:40.474Z,26.10
2022-08-09T02:01:09.239Z,26.10
2022-08-09T02:03:37.631Z,26.10
2022-08-09T02:06:07.948Z,26.10
2022-08-09T02:08:57.614Z,26.10
2022-08-09T02:11:42.001Z,26.00
2022-08-09T02:14:10.931Z,26.00
2022-08-09T02:16:52.986Z,26.10
2022-08-09T02:19:34.862Z,26.00
2022-08-09T02:22:31.663Z,26.00
2022-08-09T02:25:06.624Z,26.00
2022-08-09T02:27:57.524Z,26.00
2022-08-09T02:30:26.376Z,26.00
2022-08-09T02:32:55.292Z,26.00
2022-08-09T02:36:01.715Z,26.00
2022-08-09T02:38:27.826Z,26.00
2022-08-09T02:40:59.500Z,26.00
2022-08-09T02:43:29.458Z,26.00
2022-08-09T02:46:12.258Z,26.00
2022-08-09T02:48:46.247Z,26.00
2022-08-09T02:51:18.606Z,26.00
2022-08-09T02:54:00.864Z,25.90
2022-08-09T02:56:30.647Z,25.90
2022-08-09T02:58:59.868Z,25.90
2022-08-09T03:01:29.083Z,25.90
2022-08-09T03:04:16.925Z,25.90
2022-08-09T03:06:46.149Z,25.90
2022-08-09T03:09:17.697Z,25.90
2022-08-09T03:12:05.492Z,25.80
2022-08-09T03:14:34.331Z,25.80
2022-08-09T03:17:05.650Z,25.80
2022-08-09T03:19:58.503Z,25.90
2022-08-09T03:22:25.461Z,25.80
2022-08-09T03:25:06.427Z,25.80
2022-08-09T03:27:52.194Z,25.80
2022-08-09T03:30:28.083Z,25.80
2022-08-09T03:32:59.159Z,25.80
2022-08-09T03:35:44.263Z,25.80
2022-08-09T03:38:29.009Z,25.80
2022-08-09T03:40:58.475Z,25.80
2022-08-09T03:43:31.653Z,25.80
2022-08-09T03:46:13.616Z,25.80
2022-08-09T03:48:52.014Z,25.80
2022-08-09T03:51:43.952Z,25.80
2022-08-09T03:54:12.309Z,25.80
2022-08-09T03:56:41.356Z,25.80
2022-08-09T03:59:17.190Z,25.80
2022-08-09T04:01:59.067Z,25.70
2022-08-09T04:04:32.504Z,25.70
2022-08-09T04:07:00.879Z,25.70
2022-08-09T04:09:41.757Z,25.70
2022-08-09T04:12:30.639Z,25.70
2022-08-09T04:15:11.638Z,25.70
2022-08-09T04:17:47.366Z,25.70
2022-08-09T04:20:16.029Z,25.70
2022-08-09T04:22:44.566Z,25.70
2022-08-09T04:25:13.036Z,25.70
2022-08-09T04:27:46.853Z,25.70
2022-08-09T04:30:18.327Z,25.60
2022-08-09T04:32:49.437Z,25.60
2022-08-09T04:35:17.595Z,25.60
2022-08-09T04:37:50.229Z,25.60
2022-08-09T04:40:19.292Z,25.60
2022-08-09T04:42:57.268Z,25.50
2022-08-09T04:45:30.716Z,25.60
2022-08-09T04:48:09.866Z,25.60
2022-08-09T04:50:38.418Z,25.50
2022-08-09T04:53:13.488Z,25.50
2022-08-09T04:55:58.357Z,25.50
2022-08-09T04:58:28.997Z,25.50
2022-08-09T05:00:59.816Z,25.50
2022-08-09T05:03:42.734Z,25.50
2022-08-09T05:06:25.741Z,25.50
2022-08-09T05:09:00.346Z,25.50
2022-08-09T05:11:32.054Z,25.50
2022-08-09T05:14:00.305Z,25.50
2022-08-09T05:16:31.761Z,25.50
2022-08-09T05:19:00.768Z,25.40
2022-08-09T05:21:36.611Z,25.40
2022-08-09T05:24:18.526Z,25.40
2022-08-09T05:26:47.821Z,25.50
2022-08-09T05:29:24.547Z,25.50
2022-08-09T05:32:02.073Z,25.50
2022-08-09T05:34:32.500Z,25.40
2022-08-09T05:37:04.981Z,25.40
2022-08-09T05:39:43.524Z,25.40
2022-08-09T05:42:17.552Z,25.40
2022-08-09T05:45:00.042Z,25.40
2022-08-09T05:47:30.285Z,25.40
2022-08-09T05:50:30.022Z,25.40
2022-08-09T05:52:53.683Z,25.40
2022-08-09T05:55:23.912Z,25.40
2022-08-09T05:57:56.741Z,25.40
2022-08-09T06:00:29.912Z,25.30
2022-08-09T06:02:59.354Z,25.40
2022-08-09T06:05:50.278Z,25.40
2022-08-09T06:08:19.644Z,25.30
2022-08-09T06:10:55.826Z,25.30
2022-08-09T06:13:24.506Z,25.30
2022-08-09T06:15:53.000Z,25.30
2022-08-09T06:18:24.833Z,25.40
2022-08-09T06:20:57.290Z,25.30
2022-08-09T06:23:58.917Z,25.30
2022-08-09T06:26:20.135Z,25.30
2022-08-09T06:28:50.185Z,25.30
2022-08-09T06:31:31.608Z,25.30
2022-08-09T06:34:07.430Z,25.30
2022-08-09T06:36:35.612Z,25.20
2022-08-09T06:39:09.310Z,25.20
2022-08-09T06:42:07.843Z,25.20
2022-08-09T06:44:27.990Z,25.20
2022-08-09T06:46:56.179Z,25.20
2022-08-09T06:49:44.585Z,25.20
2022-08-09T06:52:15.996Z,25.20
2022-08-09T06:54:44.013Z,25.20
2022-08-09T06:57:15.124Z,25.20
2022-08-09T07:00:50.510Z,25.20
2022-08-09T07:02:32.251Z,25.20
2022-08-09T07:05:01.411Z,25.20
2022-08-09T07:07:59.727Z,25.20
2022-08-09T07:10:29.478Z,25.20
2022-08-09T07:12:59.261Z,25.20
2022-08-09T07:16:34.986Z,25.20
2022-08-09T07:18:15.765Z,25.10
2022-08-09T07:20:44.584Z,25.10
2022-08-09T07:23:19.285Z,25.20
2022-08-09T07:25:52.187Z,25.10
2022-08-09T07:28:29.249Z,25.20
2022-08-09T07:30:57.328Z,25.20
2022-08-09T07:33:25.245Z,25.20
2022-08-09T07:35:54.065Z,25.20
2022-08-09T07:38:23.417Z,25.20
2022-08-09T07:41:00.846Z,25.20
2022-08-09T07:43:50.059Z,25.10
2022-08-09T07:46:25.307Z,25.10
2022-08-09T07:49:00.082Z,25.10
2022-08-09T07:52:04.564Z,25.10
2022-08-09T07:54:19.108Z,25.10
2022-08-09T07:56:55.458Z,25.10
2022-08-09T07:59:33.866Z,25.10
2022-08-09T08:02:13.115Z,25.10
2022-08-09T08:04:49.027Z,25.10
2022-08-09T08:08:43.035Z,25.10
2022-08-09T08:10:07.911Z,25.10
2022-08-09T08:12:42.653Z,25.10
2022-08-09T08:15:16.632Z,25.10
2022-08-09T08:17:53.329Z,25.10
2022-08-09T08:20:29.030Z,25.10
2022-08-09T08:23:03.540Z,25.10
2022-08-09T08:25:50.261Z,25.10
2022-08-09T08:28:26.037Z,25.10
2022-08-09T08:31:04.897Z,25.10
2022-08-09T08:33:52.180Z,25.10
2022-08-09T08:36:29.089Z,25.10
2022-08-09T08:38:58.803Z,25.10
2022-08-09T08:41:50.196Z,25.10
2022-08-09T08:44:23.222Z,25.10
2022-08-09T08:47:02.111Z,25.20
2022-08-09T08:49:47.070Z,25.20
2022-08-09T08:55:06.968Z,25.20
2022-08-09T08:57:36.090Z,25.20
2022-08-09T09:00:12.799Z,25.20
2022-08-09T09:02:53.905Z,25.30
2022-08-09T09:05:57.367Z,25.30
2022-08-09T09:08:29.934Z,25.30
2022-08-09T09:11:04.169Z,25.30
2022-08-09T09:13:47.470Z,25.40
2022-08-09T09:16:30.476Z,25.40
2022-08-09T09:22:02.730Z,25.40
2022-08-09T09:24:34.712Z,25.40
2022-08-09T09:27:05.977Z,25.40
2022-08-09T09:30:08.446Z,25.40
2022-08-09T09:32:35.070Z,25.40
2022-08-09T09:35:09.495Z,25.40
2022-08-09T09:37:40.398Z,25.40
2022-08-09T09:40:09.797Z,25.40
2022-08-09T09:42:39.360Z,25.50
2022-08-09T09:45:14.422Z,25.50
2022-08-09T09:47:58.723Z,25.50
2022-08-09T09:50:42.075Z,25.50
2022-08-09T09:53:20.541Z,25.50
2022-08-09T09:55:57.554Z,25.50
2022-08-09T09:58:45.797Z,25.50
2022-08-09T10:01:37.869Z,25.50
2022-08-09T10:04:15.973Z,25.60
2022-08-09T10:06:46.980Z,25.60
2022-08-09T10:09:22.234Z,25.60
2022-08-09T10:12:14.843Z,25.60
2022-08-09T10:14:51.769Z,25.60
2022-08-09T10:17:40.203Z,25.60
2022-08-09T10:20:27.409Z,25.60
2022-08-09T10:23:13.652Z,25.60
2022-08-09T10:26:05.945Z,25.60
2022-08-09T10:28:37.295Z,25.60
2022-08-09T10:34:10.251Z,25.70
2022-08-09T10:36:43.246Z,25.70
2022-08-09T10:39:15.635Z,25.70
2022-08-09T10:41:47.525Z,25.70
2022-08-09T10:44:24.721Z,25.70
2022-08-09T10:47:20.582Z,25.70
2022-08-09T10:49:58.764Z,25.80
2022-08-09T10:52:42.992Z,25.80
2022-08-09T10:55:22.654Z,25.80
2022-08-09T10:57:51.854Z,25.80
2022-08-09T11:00:29.469Z,25.80
2022-08-09T11:03:14.512Z,25.80
2022-08-09T11:06:03.898Z,25.80
2022-08-09T11:08:47.733Z,25.80
2022-08-09T11:11:16.806Z,25.80
2022-08-09T11:14:04.666Z,25.80
2022-08-09T11:16:41.102Z,25.80
2022-08-09T11:19:10.959Z,25.90
2022-08-09T11:22:16.767Z,25.90
2022-08-09T11:24:59.439Z,25.90
2022-08-09T11:28:04.792Z,26.00
2022-08-09T11:30:33.762Z,26.00
2022-08-09T11:33:03.866Z,26.00
2022-08-09T11:35:49.199Z,26.00
2022-08-09T11:38:17.889Z,26.00
2022-08-09T11:40:46.932Z,26.00
2022-08-09T11:43:38.789Z,26.00
2022-08-09T11:46:06.894Z,26.00
2022-08-09T11:48:46.980Z,26.00
2022-08-09T11:52:06.808Z,26.00
2022-08-09T11:54:14.106Z,26.10
2022-08-09T11:56:48.080Z,26.10
2022-08-09T11:59:30.693Z,26.10
2022-08-09T12:02:16.997Z,26.10
2022-08-09T12:04:47.260Z,26.10
2022-08-09T12:07:15.211Z,26.10
2022-08-09T12:09:50.962Z,26.10
2022-08-09T12:12:20.248Z,26.10
2022-08-09T12:15:08.262Z,26.20
2022-08-09T12:17:43.321Z,26.10
2022-08-09T12:20:22.235Z,26.20
2022-08-09T12:22:58.921Z,26.20
2022-08-09T12:25:36.842Z,26.20
2022-08-09T12:29:14.404Z,26.20
2022-08-09T12:31:02.187Z,26.20
2022-08-09T12:33:51.011Z,26.20
2022-08-09T12:36:31.511Z,26.20
2022-08-09T12:39:02.404Z,26.30
2022-08-09T12:41:39.314Z,26.30
2022-08-09T12:44:10.249Z,26.30
2022-08-09T12:46:43.393Z,26.30
2022-08-09T12:49:17.777Z,26.30
2022-08-09T12:52:02.641Z,26.30
2022-08-09T12:56:12.238Z,26.30
2022-08-09T12:57:39.825Z,26.30
2022-08-09T13:00:18.944Z,26.30
2022-08-09T13:02:57.535Z,26.30
2022-08-09T13:05:27.089Z,26.30
2022-08-09T13:08:16.343Z,26.30
2022-08-09T13:10:52.359Z,26.30
2022-08-09T13:14:01.027Z,26.40
2022-08-09T13:16:17.779Z,26.40
2022-08-09T13:18:53.490Z,26.40
2022-08-09T13:22:36.031Z,26.40
2022-08-09T13:24:53.510Z,26.40
2022-08-09T13:27:06.092Z,26.40
2022-08-09T13:30:02.446Z,26.40
2022-08-09T13:32:38.290Z,26.40
2022-08-09T13:35:11.684Z,26.40
2022-08-09T13:37:52.424Z,26.40
2022-08-09T13:41:49.645Z,26.40
2022-08-09T13:43:09.777Z,26.40
2022-08-09T13:46:42.658Z,26.40
2022-08-09T13:48:27.284Z,26.40
2022-08-09T13:50:57.736Z,26.40
2022-08-09T13:53:37.608Z,26.40
2022-08-09T13:56:12.155Z,26.40
2022-08-09T13:58:39.956Z,26.50
2022-08-09T14:01:13.577Z,26.50
2022-08-09T14:04:04.897Z,26.50
2022-08-09T14:06:36.896Z,26.50
2022-08-09T14:09:07.874Z,26.50
2022-08-09T14:11:42.048Z,26.50
2022-08-09T14:14:26.885Z,26.50
2022-08-09T14:16:56.809Z,26.50
2022-08-09T14:19:26.846Z,26.60
2022-08-09T14:22:01.057Z,26.60
2022-08-09T14:24:32.583Z,26.60
2022-08-09T14:27:01.507Z,26.60
2022-08-09T14:30:37.433Z,26.60
2022-08-09T14:32:19.968Z,26.60
2022-08-09T14:34:59.100Z,26.60
2022-08-09T14:37:28.441Z,26.60
2022-08-09T14:39:56.941Z,26.70
2022-08-09T14:42:40.769Z,26.60
2022-08-09T14:46:58.658Z,26.70
2022-08-09T14:48:00.373Z,26.70
2022-08-09T14:50:32.673Z,26.70
2022-08-09T14:53:01.809Z,26.70
2022-08-09T14:55:32.522Z,26.80
2022-08-09T14:58:05.124Z,26.80
2022-08-09T15:00:35.200Z,26.80
2022-08-09T15:03:08.906Z,26.80
2022-08-09T15:05:38.689Z,26.80
2022-08-09T15:08:10.490Z,26.80
2022-08-09T15:10:38.411Z,26.80
2022-08-09T15:13:08.876Z,26.80
2022-08-09T15:15:39.234Z,26.80
2022-08-09T15:18:14.289Z,26.90
2022-08-09T15:21:57.535Z,26.90
2022-08-09T15:24:01.451Z,26.90
2022-08-09T15:26:31.069Z,26.90
2022-08-09T15:29:04.381Z,26.90
2022-08-09T15:31:41.507Z,26.90
2022-08-09T15:34:32.096Z,26.90
2022-08-09T15:36:58.966Z,27.00
2022-08-09T15:39:43.797Z,27.00
2022-08-09T15:42:15.086Z,27.00
2022-08-09T15:44:42.859Z,27.00
2022-08-09T15:47:14.339Z,27.00
2022-08-09T15:50:03.551Z,27.00
2022-08-09T15:52:35.675Z,27.00
2022-08-09T15:55:05.518Z,27.00
2022-08-09T15:57:35.904Z,27.00
2022-08-09T16:00:24.352Z,27.10
2022-08-09T16:02:56.193Z,27.10
2022-08-09T16:05:26.933Z,27.10
2022-08-09T16:08:15.183Z,27.10
2022-08-09T16:10:58.325Z,27.10
2022-08-09T16:14:04.814Z,27.10
2022-08-09T16:16:17.667Z,27.10
2022-08-09T16:18:47.576Z,27.20
2022-08-09T16:21:17.006Z,27.10
2022-08-09T16:23:55.539Z,27.20
2022-08-09T16:26:33.477Z,27.20
2022-08-09T16:29:10.741Z,27.20
2022-08-09T16:32:18.419Z,27.20
2022-08-09T16:34:29.608Z,27.20
2022-08-09T16:37:17.756Z,27.20
2022-08-09T16:39:54.572Z,27.20
2022-08-09T16:42:33.320Z,27.20
2022-08-09T16:45:01.367Z,27.20
2022-08-09T16:48:42.197Z,27.20
2022-08-09T16:50:31.722Z,27.20
2022-08-09T16:53:01.845Z,27.20
2022-08-09T16:55:58.338Z,27.20
2022-08-09T16:58:21.164Z,27.20
2022-08-09T17:00:49.769Z,27.20
2022-08-09T17:03:21.765Z,27.20
2022-08-09T17:06:07.475Z,27.20
2022-08-09T17:08:56.810Z,27.20
2022-08-09T17:11:41.303Z,27.30
2022-08-09T17:14:25.922Z,27.20
2022-08-09T17:17:02.816Z,27.30
2022-08-09T17:19:47.210Z,27.30
2022-08-09T17:22:24.640Z,27.20
2022-08-09T17:25:03.801Z,27.30
2022-08-09T17:27:33.658Z,27.30
2022-08-09T17:30:06.610Z,27.30
2022-08-09T17:32:37.945Z,27.20
2022-08-09T17:35:11.556Z,27.20
2022-08-09T17:38:12.112Z,27.30
2022-08-09T17:40:29.628Z,27.30
2022-08-09T17:42:59.564Z,27.30
2022-08-09T17:46:02.208Z,27.30
2022-08-09T17:48:19.504Z,27.30
2022-08-09T17:51:08.659Z,27.30
2022-08-09T17:53:43.340Z,27.30
2022-08-09T17:56:18.155Z,27.30
2022-08-09T17:58:46.515Z,27.30
2022-08-09T18:01:22.539Z,27.30
2022-08-09T18:03:52.706Z,27.30
2022-08-09T18:06:31.811Z,27.30
2022-08-09T18:09:03.157Z,27.30
2022-08-09T18:12:05.783Z,27.30
2022-08-09T18:14:23.585Z,27.20
2022-08-09T18:16:53.398Z,27.20
2022-08-09T18:20:55.738Z,27.20
2022-08-09T18:22:13.193Z,27.20
2022-08-09T18:24:45.667Z,27.20
2022-08-09T18:27:59.781Z,27.20
2022-08-09T18:30:40.183Z,27.20
2022-08-09T18:32:54.111Z,27.20
2022-08-09T18:35:48.167Z,27.20
2022-08-09T18:38:12.565Z,27.20
2022-08-09T18:40:40.891Z,27.20
2022-08-09T18:43:09.064Z,27.20
2022-08-09T18:46:50.727Z,27.20
2022-08-09T18:48:30.124Z,27.20
2022-08-09T18:51:00.082Z,27.20
2022-08-09T18:53:56.463Z,27.20
2022-08-09T18:56:20.089Z,27.20
2022-08-09T18:58:56.620Z,27.20
2022-08-09T19:01:25.933Z,27.20
2022-08-09T19:04:06.348Z,27.20
2022-08-09T19:06:38.548Z,27.20
2022-08-09T19:09:20.430Z,27.20
2022-08-09T19:11:57.414Z,27.20
2022-08-09T19:14:29.486Z,27.20
2022-08-09T19:16:57.842Z,27.20
2022-08-09T19:19:28.082Z,27.20
2022-08-09T19:22:06.508Z,27.20
2022-08-09T19:25:12.084Z,27.10
2022-08-09T19:27:23.682Z,27.10
2022-08-09T19:30:22.116Z,27.20
2022-08-09T19:32:44.971Z,27.10
2022-08-09T19:35:13.010Z,27.10
2022-08-09T19:37:56.446Z,27.10
2022-08-09T19:40:34.336Z,27.10
2022-08-09T19:43:05.340Z,27.10
2022-08-09T19:45:40.264Z,27.10
2022-08-09T19:48:10.778Z,27.10
2022-08-09T19:50:48.911Z,27.10
2022-08-09T19:53:20.522Z,27.00
2022-08-09T19:56:03.159Z,27.00
2022-08-09T19:58:35.069Z,27.00
2022-08-09T20:01:04.184Z,27.00
2022-08-09T20:04:09.925Z,27.00
2022-08-09T20:06:23.909Z,27.00
2022-08-09T20:08:59.566Z,27.00
2022-08-09T20:11:33.860Z,27.00
2022-08-09T20:14:16.658Z,27.00
2022-08-09T20:16:53.528Z,27.00
2022-08-09T20:19:48.900Z,27.00
2022-08-09T20:22:14.538Z,27.00
2022-08-09T20:24:51.362Z,27.00
2022-08-09T20:27:22.170Z,26.90
2022-08-09T20:29:50.506Z,27.00
2022-08-09T20:32:32.975Z,27.00
2022-08-09T20:35:02.249Z,27.00
2022-08-09T20:38:08.658Z,27.00
2022-08-09T20:40:26.544Z,27.00
2022-08-09T20:42:59.885Z,27.00
2022-08-09T20:45:59.419Z,27.00
2022-08-09T20:48:25.508Z,26.90
2022-08-09T20:50:58.293Z,27.00
2022-08-09T20:53:36.613Z,26.90
2022-08-09T20:56:08.774Z,26.90
2022-08-09T20:58:37.968Z,26.90
2022-08-09T21:01:33.161Z,26.90
2022-08-09T21:05:48.699Z,26.90
2022-08-09T21:06:44.372Z,26.90
2022-08-09T21:09:13.973Z,26.80
2022-08-09T21:14:30.954Z,26.90
2022-08-09T21:17:00.560Z,26.90
2022-08-09T21:20:18.395Z,26.90
2022-08-09T21:22:35.842Z,26.80
2022-08-09T21:25:22.805Z,26.80
2022-08-09T21:27:53.703Z,26.80
2022-08-09T21:30:23.215Z,26.80
2022-08-09T21:32:53.265Z,26.80
2022-08-09T21:35:21.555Z,26.80
2022-08-09T21:37:59.131Z,26.80
2022-08-09T21:40:32.591Z,26.80
2022-08-09T21:43:00.949Z,26.80
2022-08-09T21:45:28.954Z,26.80
2022-08-09T21:47:58.719Z,26.80
2022-08-09T21:50:36.178Z,26.80
2022-08-09T21:53:24.069Z,26.80
2022-08-09T21:55:55.635Z,26.80
2022-08-09T21:58:31.033Z,26.70
2022-08-09T22:00:59.424Z,26.70
2022-08-09T22:03:28.570Z,26.70
2022-08-09T22:05:58.059Z,26.70
2022-08-09T22:08:28.626Z,26.70
2022-08-09T22:11:00.168Z,26.70
2022-08-09T22:13:44.778Z,26.70
2022-08-09T22:16:12.731Z,26.70
2022-08-09T22:18:53.543Z,26.70
2022-08-09T22:21:44.730Z,26.70
2022-08-09T22:24:17.126Z,26.70
2022-08-09T22:26:47.843Z,26.70
2022-08-09T22:29:24.011Z,26.70
2022-08-09T22:31:57.871Z,26.70
2022-08-09T22:34:26.831Z,26.70
2022-08-09T22:36:55.564Z,26.70
2022-08-09T22:39:55.826Z,26.60
2022-08-09T22:42:22.162Z,26.60
2022-08-09T22:45:00.048Z,26.60
2022-08-09T22:48:10.614Z,26.60
2022-08-09T22:50:27.428Z,26.60
2022-08-09T22:52:58.226Z,26.60
2022-08-09T22:55:39.484Z,26.60
2022-08-09T22:58:20.239Z,26.60
2022-08-09T23:01:00.630Z,26.60
2022-08-09T23:04:04.418Z,26.60
2022-08-09T23:06:32.504Z,26.60
2022-08-09T23:09:07.531Z,26.60
2022-08-09T23:11:35.282Z,26.60
2022-08-09T23:14:03.761Z,26.60
2022-08-09T23:16:32.246Z,26.60
2022-08-09T23:19:00.659Z,26.60
2022-08-09T23:21:33.712Z,26.50
2022-08-09T23:24:06.574Z,26.50
2022-08-09T23:26:38.636Z,26.50
2022-08-09T23:29:07.629Z,26.50
2022-08-09T23:31:35.298Z,26.50
2022-08-09T23:34:03.797Z,26.50
2022-08-09T23:36:32.996Z,26.50
2022-08-09T23:39:00.869Z,26.50
2022-08-09T23:41:29.659Z,26.40
2022-08-09T23:44:01.651Z,26.40
2022-08-09T23:46:29.928Z,26.40
2022-08-09T23:48:58.441Z,26.40
2022-08-09T23:51:26.741Z,26.40
2022-08-09T23:53:55.310Z,26.40
2022-08-09T23:56:52.269Z,26.40
2022-08-09T23:59:20.841Z,26.40
